createdAt,value
2022-12-14T00:00:17.071Z,99018.16
2022-12-14T00:02:45.860Z,99007.97
2022-12-14T00:05:19.779Z,99010.63
2022-12-14T00:07:49.147Z,99004.66
2022-12-14T00:10:18.213Z,98994.34
2022-12-14T00:12:46.559Z,98988.38
2022-12-14T00:15:14.987Z,98984.06
2022-12-14T00:17:43.494Z,98984.06
2022-12-14T00:20:13.031Z,98973.13
2022-12-14T00:22:42.835Z,98975.66
2022-12-14T00:25:11.755Z,98974.88
2022-12-14T00:27:44.681Z,98975.91
2022-12-14T00:30:14.889Z,98978.44
2022-12-14T00:32:43.607Z,98968.34
2022-12-14T00:35:14.508Z,98968.34
2022-12-14T00:37:45.143Z,98971.88
2022-12-14T00:40:17.351Z,98962.59
2022-12-14T00:42:45.794Z,98954.19
2022-12-14T00:45:14.107Z,98954.19
2022-12-14T00:47:42.468Z,98955.06
2022-12-14T00:50:11.018Z,98954.19
2022-12-14T00:52:39.805Z,98953.41
2022-12-14T00:55:10.684Z,98949.97
2022-12-14T00:57:39.179Z,98950.75
2022-12-14T01:00:09.593Z,98953.06
2022-12-14T01:02:38.150Z,98942.59
2022-12-14T01:05:07.848Z,98939.16
2022-12-14T01:07:37.329Z,98938.97
2022-12-14T01:10:06.794Z,98932.09
2022-12-14T01:12:36.756Z,98922.81
2022-12-14T01:15:07.105Z,98921.81
2022-12-14T01:17:35.557Z,98913.19
2022-12-14T01:20:05.539Z,98918.16
2022-12-14T01:22:33.950Z,98913.72
2022-12-14T01:25:02.410Z,98912.84
2022-12-14T01:27:31.027Z,98910.41
2022-12-14T01:30:00.765Z,98922.25
2022-12-14T01:32:29.936Z,98920.59
2022-12-14T01:34:58.375Z,98914.41
2022-12-14T01:37:27.037Z,98910.69
2022-12-14T01:39:55.518Z,98920.53
2022-12-14T01:42:24.166Z,98916.00
2022-12-14T01:45:00.063Z,98912.25
2022-12-14T01:47:37.188Z,98916.13
2022-12-14T01:50:14.076Z,98904.00
2022-12-14T01:52:46.421Z,98902.81
2022-12-14T01:55:21.900Z,98894.94
2022-12-14T01:57:55.349Z,98893.97
2022-12-14T02:00:33.232Z,98899.81
2022-12-14T02:03:07.737Z,98900.59
2022-12-14T02:05:39.127Z,98890.44
2022-12-14T02:08:08.795Z,98885.34
2022-12-14T02:10:37.983Z,98883.56
2022-12-14T02:13:14.612Z,98877.59
2022-12-14T02:15:45.453Z,98864.78
2022-12-14T02:18:20.527Z,98857.16
2022-12-14T02:21:11.098Z,98866.53
2022-12-14T02:24:22.286Z,98852.06
2022-12-14T02:27:12.130Z,98851.09
2022-12-14T02:30:04.807Z,98843.47
2022-12-14T02:33:12.003Z,98842.78
2022-12-14T02:36:02.629Z,98842.91
2022-12-14T02:38:48.611Z,98838.81
2022-12-14T02:41:24.256Z,98840.47
2022-12-14T02:44:04.847Z,98825.22
2022-12-14T02:46:47.341Z,98827.88
2022-12-14T02:49:36.904Z,98815.06
2022-12-14T02:52:13.735Z,98822.56
2022-12-14T02:54:51.286Z,98809.75
2022-12-14T02:57:25.616Z,98805.34
2022-12-14T02:59:58.269Z,98807.97
2022-12-14T03:02:29.290Z,98800.28
2022-12-14T03:05:00.254Z,98803.78
2022-12-14T03:07:42.174Z,98810.63
2022-12-14T03:10:21.843Z,98800.47
2022-12-14T03:12:57.490Z,98800.47
2022-12-14T03:15:28.281Z,98799.81
2022-12-14T03:18:02.994Z,98790.53
2022-12-14T03:20:33.948Z,98789.75
2022-12-14T03:23:07.824Z,98785.63
2022-12-14T03:25:44.278Z,98776.34
2022-12-14T03:28:18.490Z,98770.38
2022-12-14T03:31:01.310Z,98779.66
2022-12-14T03:33:32.825Z,98772.81
2022-12-14T03:36:10.077Z,98770.19
2022-12-14T03:38:42.952Z,98769.97
2022-12-14T03:41:22.207Z,98767.31
2022-12-14T03:44:09.514Z,98767.41
2022-12-14T03:46:43.560Z,98757.13
2022-12-14T03:49:22.600Z,98755.59
2022-12-14T03:52:03.786Z,98751.63
2022-12-14T03:54:45.513Z,98744.84
2022-12-14T03:57:25.417Z,98746.53
2022-12-14T04:00:03.143Z,98745.66
2022-12-14T04:02:48.747Z,98748.97
2022-12-14T04:05:25.815Z,98741.22
2022-12-14T04:08:02.756Z,98736.81
2022-12-14T04:10:55.010Z,98736.81
2022-12-14T04:13:48.983Z,98733.28
2022-12-14T04:16:41.271Z,98730.06
2022-12-14T04:19:18.189Z,98733.28
2022-12-14T04:21:54.400Z,98737.69
2022-12-14T04:24:47.498Z,98730.94
2022-12-14T04:27:22.946Z,98736.13
2022-12-14T04:29:58.171Z,98732.06
2022-12-14T04:32:32.951Z,98729.69
2022-12-14T04:35:08.354Z,98725.63
2022-12-14T04:37:41.667Z,98725.03
2022-12-14T04:40:13.701Z,98728.56
2022-12-14T04:42:49.198Z,98730.41
2022-12-14T04:45:24.831Z,98737.38
2022-12-14T04:48:01.599Z,98737.38
2022-12-14T04:50:37.276Z,98729.88
2022-12-14T04:53:12.591Z,98724.84
2022-12-14T04:55:47.335Z,98724.97
2022-12-14T04:58:24.078Z,98718.22
2022-12-14T05:01:24.925Z,98724.09
2022-12-14T05:04:06.069Z,98722.31
2022-12-14T05:06:42.886Z,98708.81
2022-12-14T05:09:19.595Z,98713.03
2022-12-14T05:11:55.325Z,98715.47
2022-12-14T05:14:33.108Z,98713.50
2022-12-14T05:17:08.380Z,98712.53
2022-12-14T05:19:38.679Z,98711.53
2022-12-14T05:22:09.026Z,98699.59
2022-12-14T05:24:38.837Z,98691.88
2022-12-14T05:27:07.427Z,98674.88
2022-12-14T05:29:35.915Z,98689.25
2022-12-14T05:32:04.674Z,98676.63
2022-12-14T05:34:33.205Z,98671.53
2022-12-14T05:37:01.581Z,98669.81
2022-12-14T05:39:30.567Z,98672.53
2022-12-14T05:42:00.430Z,98661.59
2022-12-14T05:44:28.756Z,98669.31
2022-12-14T05:46:57.344Z,98664.41
2022-12-14T05:49:26.337Z,98661.09
2022-12-14T05:51:55.140Z,98654.44
2022-12-14T05:54:23.606Z,98645.25
2022-12-14T05:56:52.499Z,98646.25
2022-12-14T05:59:22.356Z,98644.66
2022-12-14T06:01:51.599Z,98638.81
2022-12-14T06:04:20.710Z,98635.50
2022-12-14T06:06:50.177Z,98641.56
2022-12-14T06:09:19.190Z,98635.72
2022-12-14T06:11:49.302Z,98628.94
2022-12-14T06:14:18.721Z,98638.44
2022-12-14T06:16:48.933Z,98634.34
2022-12-14T06:19:17.809Z,98637.75
2022-12-14T06:21:46.259Z,98630.97
2022-12-14T06:24:15.367Z,98622.56
2022-12-14T06:26:44.200Z,98620.91
2022-12-14T06:29:17.846Z,98617.59
2022-12-14T06:31:49.109Z,98612.41
2022-12-14T06:34:23.431Z,98614.00
2022-12-14T06:36:53.365Z,98614.78
2022-12-14T06:39:21.758Z,98611.22
2022-12-14T06:41:51.869Z,98617.91
2022-12-14T06:44:21.027Z,98621.00
2022-12-14T06:46:51.488Z,98611.53
2022-12-14T06:49:19.999Z,98622.59
2022-12-14T06:51:48.441Z,98622.66
2022-12-14T06:54:18.288Z,98618.47
2022-12-14T06:56:48.562Z,98616.91
2022-12-14T06:59:17.751Z,98622.00
2022-12-14T07:01:50.131Z,98628.06
2022-12-14T07:04:21.818Z,98632.34
2022-12-14T07:06:50.402Z,98631.69
2022-12-14T07:09:19.352Z,98629.16
2022-12-14T07:11:50.972Z,98635.13
2022-12-14T07:14:20.645Z,98632.69
2022-12-14T07:16:49.224Z,98624.94
2022-12-14T07:19:20.132Z,98619.84
2022-12-14T07:21:48.534Z,98632.69
2022-12-14T07:24:17.033Z,98635.13
2022-12-14T07:26:45.492Z,98633.34
2022-12-14T07:29:15.082Z,98635.59
2022-12-14T07:31:43.800Z,98641.66
2022-12-14T07:34:20.454Z,98639.81
2022-12-14T07:36:51.045Z,98635.38
2022-12-14T07:39:19.934Z,98641.34
2022-12-14T07:41:50.493Z,98632.75
2022-12-14T07:44:22.689Z,98635.88
2022-12-14T07:46:51.255Z,98646.91
2022-12-14T07:49:21.612Z,98640.94
2022-12-14T07:51:50.599Z,98642.72
2022-12-14T07:54:18.962Z,98642.59
2022-12-14T07:56:47.311Z,98639.28
2022-12-14T07:59:16.773Z,98644.50
2022-12-14T08:01:46.124Z,98651.34
2022-12-14T08:04:18.369Z,98649.75
2022-12-14T08:06:49.284Z,98648.91
2022-12-14T08:09:20.111Z,98650.56
2022-12-14T08:11:49.211Z,98648.69
2022-12-14T08:14:20.420Z,98648.69
2022-12-14T08:16:50.544Z,98653.66
2022-12-14T08:19:20.411Z,98659.75
2022-12-14T08:21:50.356Z,98657.19
2022-12-14T08:24:18.870Z,98659.75
2022-12-14T08:26:49.363Z,98668.38
2022-12-14T08:29:19.201Z,98661.50
2022-12-14T08:31:48.012Z,98662.47
2022-12-14T08:34:22.014Z,98656.59
2022-12-14T08:36:52.039Z,98657.59
2022-12-14T08:39:20.489Z,98654.34
2022-12-14T08:41:48.981Z,98655.25
2022-12-14T08:44:18.799Z,98660.31
2022-12-14T08:46:47.736Z,98657.72
2022-12-14T08:49:16.519Z,98654.19
2022-12-14T08:51:45.407Z,98661.69
2022-12-14T08:54:15.321Z,98651.53
2022-12-14T08:56:44.773Z,98658.38
2022-12-14T08:59:30.225Z,98664.47
2022-12-14T09:02:02.633Z,98660.16
2022-12-14T09:04:31.234Z,98661.03
2022-12-14T09:07:00.730Z,98658.59
2022-12-14T09:09:30.530Z,98663.69
2022-12-14T09:12:03.328Z,98658.66
2022-12-14T09:14:31.845Z,98650.38
2022-12-14T09:17:00.618Z,98657.41
2022-12-14T09:19:29.339Z,98655.63
2022-12-14T09:21:58.153Z,98670.00
2022-12-14T09:24:28.422Z,98669.84
2022-12-14T09:27:00.954Z,98668.78
2022-12-14T09:29:30.565Z,98670.22
2022-12-14T09:31:59.290Z,98662.41
2022-12-14T09:34:27.858Z,98666.59
2022-12-14T09:36:56.325Z,98682.63
2022-12-14T09:39:25.358Z,98671.47
2022-12-14T09:42:07.551Z,98673.03
2022-12-14T09:44:51.452Z,98670.38
2022-12-14T09:47:25.856Z,98667.75
2022-12-14T09:49:58.595Z,98667.06
2022-12-14T09:52:37.155Z,98660.34
2022-12-14T09:55:18.221Z,98656.97
2022-12-14T09:57:51.505Z,98662.41
2022-12-14T10:00:21.600Z,98674.53
2022-12-14T10:03:10.035Z,98666.41
2022-12-14T10:05:59.190Z,98660.53
2022-12-14T10:08:33.677Z,98664.03
2022-12-14T10:11:07.962Z,98673.44
2022-12-14T10:14:08.117Z,98659.19
2022-12-14T10:16:48.436Z,98652.53
2022-12-14T10:19:40.555Z,98647.63
2022-12-14T10:22:15.225Z,98657.25
2022-12-14T10:24:46.567Z,98648.06
2022-12-14T10:27:24.415Z,98649.13
2022-12-14T10:30:02.045Z,98646.50
2022-12-14T10:32:36.415Z,98652.56
2022-12-14T10:35:15.595Z,98650.31
2022-12-14T10:37:47.013Z,98653.72
2022-12-14T10:40:33.156Z,98654.81
2022-12-14T10:43:27.024Z,98652.34
2022-12-14T10:46:11.904Z,98654.13
2022-12-14T10:48:49.409Z,98654.22
2022-12-14T10:51:22.580Z,98650.03
2022-12-14T10:53:56.720Z,98645.94
2022-12-14T10:56:30.437Z,98641.00
2022-12-14T10:59:41.318Z,98634.38
2022-12-14T11:02:18.012Z,98634.56
2022-12-14T11:04:51.196Z,98630.56
2022-12-14T11:07:23.019Z,98623.00
2022-12-14T11:09:51.767Z,98630.06
2022-12-14T11:12:24.941Z,98629.56
2022-12-14T11:14:58.253Z,98622.00
2022-12-14T11:17:40.921Z,98625.53
2022-12-14T11:20:22.313Z,98628.97
2022-12-14T11:22:54.793Z,98626.59
2022-12-14T11:25:35.907Z,98623.47
2022-12-14T11:28:18.796Z,98622.75
2022-12-14T11:31:01.318Z,98629.63
2022-12-14T11:33:36.263Z,98618.66
2022-12-14T11:36:05.536Z,98612.78
2022-12-14T11:38:34.126Z,98618.81
2022-12-14T11:41:11.105Z,98609.63
2022-12-14T11:43:41.083Z,98613.94
2022-12-14T11:46:09.722Z,98614.88
2022-12-14T11:48:50.260Z,98625.97
2022-12-14T11:51:18.646Z,98633.53
2022-12-14T11:54:04.642Z,98624.13
2022-12-14T11:56:33.094Z,98614.72
2022-12-14T11:59:01.550Z,98617.44
2022-12-14T12:01:30.042Z,98615.88
2022-12-14T12:04:00.596Z,98628.59
2022-12-14T12:06:31.130Z,98622.63
2022-12-14T12:09:02.158Z,98623.41
2022-12-14T12:11:34.441Z,98626.84
2022-12-14T12:14:05.544Z,98626.78
2022-12-14T12:16:35.523Z,98632.66
2022-12-14T12:19:12.927Z,98628.44
2022-12-14T12:21:44.629Z,98621.47
2022-12-14T12:24:21.257Z,98626.56
2022-12-14T12:26:52.602Z,98625.78
2022-12-14T12:29:29.117Z,98630.16
2022-12-14T12:32:01.835Z,98624.41
2022-12-14T12:34:38.452Z,98628.09
2022-12-14T12:37:26.299Z,98622.22
2022-12-14T12:40:05.392Z,98624.06
2022-12-14T12:42:43.257Z,98622.50
2022-12-14T12:45:21.138Z,98620.06
2022-12-14T12:47:57.173Z,98626.22
2022-12-14T12:50:31.746Z,98617.69
2022-12-14T12:53:04.736Z,98618.56
2022-12-14T12:55:38.064Z,98617.00
2022-12-14T12:58:10.096Z,98617.09
2022-12-14T13:00:41.888Z,98627.38
2022-12-14T13:03:15.252Z,98628.34
2022-12-14T13:05:49.846Z,98634.34
2022-12-14T13:08:27.043Z,98625.81
2022-12-14T13:11:25.166Z,98630.13
2022-12-14T13:13:53.798Z,98630.13
2022-12-14T13:16:28.005Z,98635.22
2022-12-14T13:19:25.515Z,98636.00
2022-12-14T13:21:59.221Z,98643.81
2022-12-14T13:24:32.200Z,98639.53
2022-12-14T13:27:38.284Z,98645.56
2022-12-14T13:30:23.356Z,98643.81
2022-12-14T13:33:12.111Z,98638.72
2022-12-14T13:35:58.997Z,98637.75
2022-12-14T13:38:53.145Z,98647.84
2022-12-14T13:41:33.924Z,98638.38
2022-12-14T13:44:43.755Z,98637.56
2022-12-14T13:47:17.450Z,98636.78
2022-12-14T13:50:26.699Z,98638.53
2022-12-14T13:52:45.467Z,98636.09
2022-12-14T13:55:38.205Z,98638.72
2022-12-14T13:58:19.299Z,98647.34
2022-12-14T14:00:58.603Z,98650.66
2022-12-14T14:03:48.928Z,98650.78
2022-12-14T14:06:36.077Z,98652.44
2022-12-14T14:09:56.953Z,98642.25
2022-12-14T14:12:46.556Z,98641.38
2022-12-14T14:15:38.350Z,98644.78
2022-12-14T14:18:21.895Z,98647.34
2022-12-14T14:20:58.799Z,98649.88
2022-12-14T14:23:38.384Z,98650.00
2022-12-14T14:26:26.856Z,98655.09
2022-12-14T14:29:26.247Z,98651.66
2022-12-14T14:32:01.094Z,98663.50
2022-12-14T14:34:41.830Z,98660.84
2022-12-14T14:37:30.815Z,98665.06
2022-12-14T14:40:25.944Z,98655.59
2022-12-14T14:43:03.971Z,98664.91
2022-12-14T14:45:52.950Z,98659.81
2022-12-14T14:48:34.218Z,98658.91
2022-12-14T14:51:09.422Z,98657.25
2022-12-14T14:53:39.260Z,98659.81
2022-12-14T14:56:45.299Z,98666.72
2022-12-14T14:59:51.355Z,98680.19
2022-12-14T15:02:33.478Z,98676.59
2022-12-14T15:05:41.579Z,98682.47
2022-12-14T15:07:51.959Z,98685.06
2022-12-14T15:10:30.938Z,98686.84
2022-12-14T15:13:06.208Z,98692.81
2022-12-14T15:15:38.984Z,98699.69
2022-12-14T15:18:23.835Z,98697.13
2022-12-14T15:20:59.414Z,98705.66
2022-12-14T15:23:34.423Z,98698.69
2022-12-14T15:26:09.171Z,98703.00
2022-12-14T15:28:41.980Z,98708.81
2022-12-14T15:31:10.486Z,98708.81
2022-12-14T15:33:44.774Z,98706.34
2022-12-14T15:36:16.920Z,98710.47
2022-12-14T15:38:53.659Z,98715.56
2022-12-14T15:41:24.917Z,98718.91
2022-12-14T15:43:59.591Z,98717.13
2022-12-14T15:46:33.322Z,98728.97
2022-12-14T15:49:08.203Z,98733.19
2022-12-14T15:51:40.434Z,98727.16
2022-12-14T15:54:18.603Z,98725.44
2022-12-14T15:56:49.870Z,98730.47
2022-12-14T15:59:22.166Z,98727.03
2022-12-14T16:01:58.953Z,98734.56
2022-12-14T16:04:33.490Z,98735.47
2022-12-14T16:07:09.533Z,98736.13
2022-12-14T16:09:43.880Z,98733.59
2022-12-14T16:12:23.511Z,98722.34
2022-12-14T16:14:56.923Z,98724.88
2022-12-14T16:17:32.202Z,98740.16
2022-12-14T16:20:12.361Z,98743.50
2022-12-14T16:22:42.918Z,98749.38
2022-12-14T16:25:21.256Z,98749.38
2022-12-14T16:27:52.633Z,98750.94
2022-12-14T16:30:27.402Z,98756.81
2022-12-14T16:33:13.318Z,98749.97
2022-12-14T16:35:43.575Z,98747.31
2022-12-14T16:38:17.313Z,98745.66
2022-12-14T16:40:55.703Z,98757.50
2022-12-14T16:43:33.016Z,98756.66
2022-12-14T16:46:16.222Z,98773.59
2022-12-14T16:49:06.117Z,98776.81
2022-12-14T16:54:31.885Z,98792.75
2022-12-14T16:57:04.285Z,98785.94
2022-12-14T16:59:42.682Z,98779.06
2022-12-14T17:02:34.783Z,98790.91
2022-12-14T17:05:07.419Z,98791.56
2022-12-14T17:07:39.360Z,98794.13
2022-12-14T17:10:15.792Z,98796.66
2022-12-14T17:12:45.158Z,98802.56
2022-12-14T17:15:15.632Z,98799.91
2022-12-14T17:17:44.866Z,98800.81
2022-12-14T17:20:25.907Z,98804.91
2022-12-14T17:22:58.959Z,98810.78
2022-12-14T17:25:28.606Z,98815.84
2022-12-14T17:27:57.861Z,98812.34
2022-12-14T17:30:27.001Z,98813.13
2022-12-14T17:32:57.221Z,98823.44
2022-12-14T17:35:29.922Z,98826.63
2022-12-14T17:38:00.561Z,98820.56
2022-12-14T17:40:29.425Z,98821.34
2022-12-14T17:42:59.962Z,98819.59
2022-12-14T17:45:30.757Z,98806.88
2022-12-14T17:47:59.585Z,98816.16
2022-12-14T17:50:27.971Z,98814.38
2022-12-14T17:52:56.724Z,98820.25
2022-12-14T17:55:29.288Z,98815.06
2022-12-14T17:57:58.990Z,98811.63
2022-12-14T18:00:47.433Z,98812.44
2022-12-14T18:03:19.265Z,98826.81
2022-12-14T18:05:51.181Z,98834.34
2022-12-14T18:08:21.376Z,98832.56
2022-12-14T18:10:55.495Z,98836.00
2022-12-14T18:13:24.119Z,98844.41
2022-12-14T18:15:54.805Z,98835.91
2022-12-14T18:18:27.709Z,98833.28
2022-12-14T18:20:59.258Z,98839.13
2022-12-14T18:23:28.872Z,98836.59
2022-12-14T18:26:02.956Z,98848.44
2022-12-14T18:28:32.232Z,98847.44
2022-12-14T18:31:04.934Z,98847.44
2022-12-14T18:33:35.294Z,98849.91
2022-12-14T18:36:03.964Z,98847.25
2022-12-14T18:38:32.410Z,98838.63
2022-12-14T18:41:03.293Z,98834.41
2022-12-14T18:43:33.665Z,98833.53
2022-12-14T18:46:03.366Z,98841.06
2022-12-14T18:48:32.053Z,98849.50
2022-12-14T18:51:01.033Z,98845.97
2022-12-14T18:53:30.423Z,98839.97
2022-12-14T18:55:59.515Z,98844.00
2022-12-14T18:58:30.574Z,98852.59
2022-12-14T19:01:00.822Z,98854.19
2022-12-14T19:03:33.061Z,98851.53
2022-12-14T19:06:42.464Z,98856.59
2022-12-14T19:08:57.057Z,98845.34
2022-12-14T19:11:31.750Z,98862.34
2022-12-14T19:14:02.473Z,98858.94
2022-12-14T19:16:31.234Z,98862.16
2022-12-14T19:19:01.126Z,98862.16
2022-12-14T19:21:31.319Z,98869.69
2022-12-14T19:24:00.303Z,98882.28
2022-12-14T19:26:29.413Z,98878.00
2022-12-14T19:28:58.531Z,98880.56
2022-12-14T19:31:28.716Z,98878.78
2022-12-14T19:33:57.883Z,98883.00
2022-12-14T19:36:26.981Z,98879.34
2022-12-14T19:38:55.427Z,98883.66
2022-12-14T19:41:24.195Z,98886.97
2022-12-14T19:43:52.925Z,98892.81
2022-12-14T19:46:21.416Z,98893.59
2022-12-14T19:48:52.259Z,98889.28
2022-12-14T19:51:21.714Z,98891.72
2022-12-14T19:53:50.415Z,98893.38
2022-12-14T19:56:20.090Z,98904.34
2022-12-14T19:58:49.134Z,98900.81
2022-12-14T20:01:19.007Z,98906.66
2022-12-14T20:03:49.243Z,98908.31
2022-12-14T20:06:19.506Z,98898.03
2022-12-14T20:08:49.650Z,98909.78
2022-12-14T20:11:18.544Z,98913.09
2022-12-14T20:13:49.451Z,98918.00
2022-12-14T20:16:22.844Z,98916.31
2022-12-14T20:18:52.118Z,98923.94
2022-12-14T20:21:23.636Z,98920.41
2022-12-14T20:23:52.225Z,98925.41
2022-12-14T20:26:23.238Z,98916.00
2022-12-14T20:28:53.381Z,98919.31
2022-12-14T20:31:23.021Z,98922.53
2022-12-14T20:33:52.183Z,98933.47
2022-12-14T20:36:22.272Z,98938.56
2022-12-14T20:38:57.989Z,98947.84
2022-12-14T20:41:26.845Z,98951.16
2022-12-14T20:43:55.579Z,98951.94
2022-12-14T20:46:31.528Z,98947.66
2022-12-14T20:49:04.571Z,98950.19
2022-12-14T20:51:37.647Z,98961.13
2022-12-14T20:54:09.968Z,98968.66
2022-12-14T20:56:38.416Z,98962.47
2022-12-14T20:59:08.441Z,98970.09
2022-12-14T21:01:38.519Z,98972.66
2022-12-14T21:04:08.274Z,98969.88
2022-12-14T21:06:42.190Z,98972.41
2022-12-14T21:09:11.914Z,98980.81
2022-12-14T21:12:01.443Z,98979.16
2022-12-14T21:14:32.341Z,98975.53
2022-12-14T21:17:01.630Z,98989.00
2022-12-14T21:19:30.820Z,98988.88
2022-12-14T21:22:00.753Z,98999.06
2022-12-14T21:25:02.360Z,98988.81
2022-12-14T21:27:21.995Z,98997.97
2022-12-14T21:29:52.312Z,99000.50
2022-12-14T21:32:22.049Z,98997.84
2022-12-14T21:34:50.800Z,98996.97
2022-12-14T21:37:21.993Z,98995.31
2022-12-14T21:39:54.169Z,98995.09
2022-12-14T21:42:23.664Z,98995.88
2022-12-14T21:44:55.518Z,99004.38
2022-12-14T21:47:27.039Z,99007.69
2022-12-14T21:49:56.394Z,99007.56
2022-12-14T21:52:28.315Z,99005.84
2022-12-14T21:54:58.964Z,99005.84
2022-12-14T21:57:50.103Z,99010.91
2022-12-14T22:00:20.648Z,99018.41
2022-12-14T22:02:49.606Z,99018.31
2022-12-14T22:05:19.165Z,99019.94
2022-12-14T22:07:49.262Z,99025.03
2022-12-14T22:10:22.983Z,99016.44
2022-12-14T22:12:53.375Z,99021.53
2022-12-14T22:15:21.778Z,99006.81
2022-12-14T22:17:51.742Z,99007.81
2022-12-14T22:20:21.081Z,99008.56
2022-12-14T22:22:51.653Z,99004.25
2022-12-14T22:25:20.236Z,99007.56
2022-12-14T22:27:50.033Z,99016.00
2022-12-14T22:30:19.515Z,99017.53
2022-12-14T22:32:47.947Z,99018.41
2022-12-14T22:35:16.653Z,98996.19
2022-12-14T22:37:45.258Z,99002.03
2022-12-14T22:40:15.350Z,99004.59
2022-12-14T22:42:43.824Z,99002.84
2022-12-14T22:45:12.411Z,99003.59
2022-12-14T22:47:40.867Z,99002.72
2022-12-14T22:50:10.405Z,99005.16
2022-12-14T22:52:38.808Z,99007.56
2022-12-14T22:55:08.225Z,99008.44
2022-12-14T22:57:42.126Z,99010.78
2022-12-14T23:00:16.304Z,99020.06
2022-12-14T23:02:48.224Z,99022.59
2022-12-14T23:05:17.951Z,99008.81
2022-12-14T23:07:46.439Z,99013.75
2022-12-14T23:10:32.415Z,99021.25
2022-12-14T23:13:20.086Z,99017.72
2022-12-14T23:16:06.303Z,99016.63
2022-12-14T23:18:52.475Z,99019.84
2022-12-14T23:21:38.469Z,99014.50
2022-12-14T23:24:26.362Z,99029.75
2022-12-14T23:27:12.902Z,99029.53
2022-12-14T23:30:00.087Z,99035.38
2022-12-14T23:32:46.260Z,99033.63
2022-12-14T23:35:32.860Z,99034.38
2022-12-14T23:38:23.523Z,99026.75
2022-12-14T23:41:09.633Z,99030.94
2022-12-14T23:43:55.742Z,99043.56
2022-12-14T23:46:43.585Z,99043.56
2022-12-14T23:49:29.960Z,99050.16
2022-12-14T23:52:15.938Z,99046.75
2022-12-14T23:55:01.932Z,99041.53
2022-12-14T23:57:48.003Z,99046.63
